sensor_id;sensor_type;location;lat;lon;timestamp;pressure;altitude;pressure_sealevel;temperature
20103;BMP180;10210;52.284;9.892;2023-07-13T00:00:38;100371.00;;;27.30
20103;BMP180;10210;52.284;9.892;2023-07-13T00:03:05;100373.00;;;27.20
20103;BMP180;10210;52.284;9.892;2023-07-13T00:05:30;100364.00;;;27.20
20103;BMP180;10210;52.284;9.892;2023-07-13T00:07:57;100360.00;;;27.20
20103;BMP180;10210;52.284;9.892;2023-07-13T00:10:23;100366.00;;;27.10
20103;BMP180;10210;52.284;9.892;2023-07-13T00:12:49;100380.00;;;27.10
20103;BMP180;10210;52.284;9.892;2023-07-13T00:15:19;100382.00;;;27.10
20103;BMP180;10210;52.284;9.892;2023-07-13T00:17:55;100378.00;;;27.00
20103;BMP180;10210;52.284;9.892;2023-07-13T00:20:24;100376.00;;;27.00
20103;BMP180;10210;52.284;9.892;2023-07-13T00:22:52;100381.00;;;27.00
20103;BMP180;10210;52.284;9.892;2023-07-13T00:25:21;100382.00;;;27.00
20103;BMP180;10210;52.284;9.892;2023-07-13T00:27:48;100387.00;;;26.90
20103;BMP180;10210;52.284;9.892;2023-07-13T00:30:15;100383.00;;;26.90
20103;BMP180;10210;52.284;9.892;2023-07-13T00:32:40;100380.00;;;26.90
20103;BMP180;10210;52.284;9.892;2023-07-13T00:35:07;100379.00;;;26.80
20103;BMP180;10210;52.284;9.892;2023-07-13T00:37:33;100379.00;;;26.80
20103;BMP180;10210;52.284;9.892;2023-07-13T00:40:05;100379.00;;;26.80
20103;BMP180;10210;52.284;9.892;2023-07-13T00:42:31;100380.00;;;26.80
20103;BMP180;10210;52.284;9.892;2023-07-13T00:47:39;100384.00;;;26.80
20103;BMP180;10210;52.284;9.892;2023-07-13T00:50:10;100371.00;;;26.70
20103;BMP180;10210;52.284;9.892;2023-07-13T00:52:41;100375.00;;;26.70
20103;BMP180;10210;52.284;9.892;2023-07-13T00:55:10;100377.00;;;26.70
20103;BMP180;10210;52.284;9.892;2023-07-13T00:57:36;100372.00;;;26.70
20103;BMP180;10210;52.284;9.892;2023-07-13T01:00:05;100363.00;;;26.60
20103;BMP180;10210;52.284;9.892;2023-07-13T01:02:39;100362.00;;;26.60
20103;BMP180;10210;52.284;9.892;2023-07-13T01:05:20;100361.00;;;26.50
20103;BMP180;10210;52.284;9.892;2023-07-13T01:07:50;100357.00;;;26.50
20103;BMP180;10210;52.284;9.892;2023-07-13T01:10:16;100355.00;;;26.50
20103;BMP180;10210;52.284;9.892;2023-07-13T01:12:43;100354.00;;;26.50
20103;BMP180;10210;52.284;9.892;2023-07-13T01:15:48;100362.00;;;26.30
20103;BMP180;10210;52.284;9.892;2023-07-13T01:18:25;100370.00;;;26.30
20103;BMP180;10210;52.284;9.892;2023-07-13T01:21:04;100370.00;;;26.30
20103;BMP180;10210;52.284;9.892;2023-07-13T01:23:32;100372.00;;;26.30
20103;BMP180;10210;52.284;9.892;2023-07-13T01:25:59;100360.00;;;26.20
20103;BMP180;10210;52.284;9.892;2023-07-13T01:28:27;100365.00;;;26.20
20103;BMP180;10210;52.284;9.892;2023-07-13T01:30:56;100371.00;;;26.10
20103;BMP180;10210;52.284;9.892;2023-07-13T01:33:23;100361.00;;;26.00
20103;BMP180;10210;52.284;9.892;2023-07-13T01:35:49;100368.00;;;25.90
20103;BMP180;10210;52.284;9.892;2023-07-13T01:38:18;100366.00;;;25.90
20103;BMP180;10210;52.284;9.892;2023-07-13T01:40:45;100361.00;;;25.80
20103;BMP180;10210;52.284;9.892;2023-07-13T01:43:11;100370.00;;;25.70
20103;BMP180;10210;52.284;9.892;2023-07-13T01:45:36;100378.00;;;25.60
20103;BMP180;10210;52.284;9.892;2023-07-13T01:48:02;100375.00;;;25.60
20103;BMP180;10210;52.284;9.892;2023-07-13T01:50:28;100377.00;;;25.50
20103;BMP180;10210;52.284;9.892;2023-07-13T01:52:54;100372.00;;;25.40
20103;BMP180;10210;52.284;9.892;2023-07-13T01:55:21;100379.00;;;25.40
20103;BMP180;10210;52.284;9.892;2023-07-13T01:57:47;100379.00;;;25.30
20103;BMP180;10210;52.284;9.892;2023-07-13T02:00:14;100372.00;;;25.20
20103;BMP180;10210;52.284;9.892;2023-07-13T02:02:40;100366.00;;;25.20
20103;BMP180;10210;52.284;9.892;2023-07-13T02:05:06;100363.00;;;25.10
20103;BMP180;10210;52.284;9.892;2023-07-13T02:07:32;100373.00;;;25.10
20103;BMP180;10210;52.284;9.892;2023-07-13T02:09:58;100381.00;;;25.00
20103;BMP180;10210;52.284;9.892;2023-07-13T02:12:24;100372.00;;;25.00
20103;BMP180;10210;52.284;9.892;2023-07-13T02:14:49;100378.00;;;24.90
20103;BMP180;10210;52.284;9.892;2023-07-13T02:17:15;100374.00;;;24.90
20103;BMP180;10210;52.284;9.892;2023-07-13T02:19:41;100379.00;;;24.90
20103;BMP180;10210;52.284;9.892;2023-07-13T02:22:06;100388.00;;;24.80
20103;BMP180;10210;52.284;9.892;2023-07-13T02:24:32;100382.00;;;24.80
20103;BMP180;10210;52.284;9.892;2023-07-13T02:26:58;100378.00;;;24.80
20103;BMP180;10210;52.284;9.892;2023-07-13T02:29:23;100382.00;;;24.80
20103;BMP180;10210;52.284;9.892;2023-07-13T02:31:49;100380.00;;;24.80
20103;BMP180;10210;52.284;9.892;2023-07-13T02:34:15;100382.00;;;24.80
20103;BMP180;10210;52.284;9.892;2023-07-13T02:36:40;100385.00;;;24.70
20103;BMP180;10210;52.284;9.892;2023-07-13T02:39:06;100394.00;;;24.70
20103;BMP180;10210;52.284;9.892;2023-07-13T02:41:32;100384.00;;;24.60
20103;BMP180;10210;52.284;9.892;2023-07-13T02:43:59;100386.00;;;24.60
20103;BMP180;10210;52.284;9.892;2023-07-13T02:46:34;100381.00;;;24.60
20103;BMP180;10210;52.284;9.892;2023-07-13T02:49:01;100388.00;;;24.60
20103;BMP180;10210;52.284;9.892;2023-07-13T02:51:27;100386.00;;;24.50
20103;BMP180;10210;52.284;9.892;2023-07-13T02:53:53;100377.00;;;24.50
20103;BMP180;10210;52.284;9.892;2023-07-13T02:56:28;100391.00;;;24.50
20103;BMP180;10210;52.284;9.892;2023-07-13T02:58:54;100393.00;;;24.50
20103;BMP180;10210;52.284;9.892;2023-07-13T03:01:21;100391.00;;;24.50
20103;BMP180;10210;52.284;9.892;2023-07-13T03:03:51;100402.00;;;24.50
20103;BMP180;10210;52.284;9.892;2023-07-13T03:06:18;100396.00;;;24.50
20103;BMP180;10210;52.284;9.892;2023-07-13T03:08:44;100391.00;;;24.50
20103;BMP180;10210;52.284;9.892;2023-07-13T03:11:14;100398.00;;;24.40
20103;BMP180;10210;52.284;9.892;2023-07-13T03:13:41;100395.00;;;24.40
20103;BMP180;10210;52.284;9.892;2023-07-13T03:16:08;100392.00;;;24.40
20103;BMP180;10210;52.284;9.892;2023-07-13T03:18:36;100388.00;;;24.40
20103;BMP180;10210;52.284;9.892;2023-07-13T03:21:03;100379.00;;;24.40
20103;BMP180;10210;52.284;9.892;2023-07-13T03:23:29;100383.00;;;24.30
20103;BMP180;10210;52.284;9.892;2023-07-13T03:26:10;100378.00;;;24.20
20103;BMP180;10210;52.284;9.892;2023-07-13T03:28:36;100386.00;;;24.20
20103;BMP180;10210;52.284;9.892;2023-07-13T03:31:13;100395.00;;;24.20
20103;BMP180;10210;52.284;9.892;2023-07-13T03:33:40;100393.00;;;24.20
20103;BMP180;10210;52.284;9.892;2023-07-13T03:36:07;100390.00;;;24.10
20103;BMP180;10210;52.284;9.892;2023-07-13T03:38:34;100400.00;;;24.10
20103;BMP180;10210;52.284;9.892;2023-07-13T03:40:59;100401.00;;;24.00
20103;BMP180;10210;52.284;9.892;2023-07-13T03:43:25;100406.00;;;24.00
20103;BMP180;10210;52.284;9.892;2023-07-13T03:45:51;100395.00;;;24.00
20103;BMP180;10210;52.284;9.892;2023-07-13T03:48:16;100392.00;;;24.10
20103;BMP180;10210;52.284;9.892;2023-07-13T03:50:42;100393.00;;;24.10
20103;BMP180;10210;52.284;9.892;2023-07-13T03:53:08;100396.00;;;24.10
20103;BMP180;10210;52.284;9.892;2023-07-13T03:55:34;100397.00;;;24.10
20103;BMP180;10210;52.284;9.892;2023-07-13T03:58:26;100407.00;;;24.00
20103;BMP180;10210;52.284;9.892;2023-07-13T04:00:53;100403.00;;;24.10
20103;BMP180;10210;52.284;9.892;2023-07-13T04:03:19;100404.00;;;24.10
20103;BMP180;10210;52.284;9.892;2023-07-13T04:05:45;100403.00;;;24.10
20103;BMP180;10210;52.284;9.892;2023-07-13T04:08:11;100408.00;;;24.20
20103;BMP180;10210;52.284;9.892;2023-07-13T04:10:37;100408.00;;;24.20
20103;BMP180;10210;52.284;9.892;2023-07-13T04:13:04;100407.00;;;24.20
20103;BMP180;10210;52.284;9.892;2023-07-13T04:15:31;100413.00;;;24.20
20103;BMP180;10210;52.284;9.892;2023-07-13T04:17:57;100402.00;;;24.20
20103;BMP180;10210;52.284;9.892;2023-07-13T04:20:25;100413.00;;;24.20
20103;BMP180;10210;52.284;9.892;2023-07-13T04:22:52;100406.00;;;24.20
20103;BMP180;10210;52.284;9.892;2023-07-13T04:25:21;100408.00;;;24.20
20103;BMP180;10210;52.284;9.892;2023-07-13T04:27:47;100403.00;;;24.20
20103;BMP180;10210;52.284;9.892;2023-07-13T04:30:13;100408.00;;;24.20
20103;BMP180;10210;52.284;9.892;2023-07-13T04:32:38;100409.00;;;24.20
20103;BMP180;10210;52.284;9.892;2023-07-13T04:35:04;100407.00;;;24.20
20103;BMP180;10210;52.284;9.892;2023-07-13T04:37:30;100402.00;;;24.20
20103;BMP180;10210;52.284;9.892;2023-07-13T04:39:56;100407.00;;;24.20
20103;BMP180;10210;52.284;9.892;2023-07-13T04:42:22;100417.00;;;24.20
20103;BMP180;10210;52.284;9.892;2023-07-13T04:44:49;100417.00;;;24.20
20103;BMP180;10210;52.284;9.892;2023-07-13T04:47:15;100417.00;;;24.20
20103;BMP180;10210;52.284;9.892;2023-07-13T04:49:41;100416.00;;;24.20
20103;BMP180;10210;52.284;9.892;2023-07-13T04:52:07;100420.00;;;24.20
20103;BMP180;10210;52.284;9.892;2023-07-13T04:54:34;100422.00;;;24.20
20103;BMP180;10210;52.284;9.892;2023-07-13T04:57:00;100421.00;;;24.20
20103;BMP180;10210;52.284;9.892;2023-07-13T04:59:26;100415.00;;;24.10
20103;BMP180;10210;52.284;9.892;2023-07-13T05:01:53;100419.00;;;24.10
20103;BMP180;10210;52.284;9.892;2023-07-13T05:04:19;100431.00;;;24.10
20103;BMP180;10210;52.284;9.892;2023-07-13T05:06:44;100422.00;;;24.10
20103;BMP180;10210;52.284;9.892;2023-07-13T05:09:10;100430.00;;;24.10
20103;BMP180;10210;52.284;9.892;2023-07-13T05:11:38;100431.00;;;24.10
20103;BMP180;10210;52.284;9.892;2023-07-13T05:14:03;100433.00;;;24.10
20103;BMP180;10210;52.284;9.892;2023-07-13T05:16:29;100431.00;;;24.10
20103;BMP180;10210;52.284;9.892;2023-07-13T05:18:55;100442.00;;;24.10
20103;BMP180;10210;52.284;9.892;2023-07-13T05:21:20;100438.00;;;24.10
20103;BMP180;10210;52.284;9.892;2023-07-13T05:23:47;100445.00;;;24.10
20103;BMP180;10210;52.284;9.892;2023-07-13T05:26:13;100448.00;;;24.10
20103;BMP180;10210;52.284;9.892;2023-07-13T05:28:39;100446.00;;;24.10
20103;BMP180;10210;52.284;9.892;2023-07-13T05:31:08;100445.00;;;24.10
20103;BMP180;10210;52.284;9.892;2023-07-13T05:33:34;100438.00;;;24.10
20103;BMP180;10210;52.284;9.892;2023-07-13T05:36:00;100444.00;;;24.10
20103;BMP180;10210;52.284;9.892;2023-07-13T05:38:26;100452.00;;;24.20
20103;BMP180;10210;52.284;9.892;2023-07-13T05:40:55;100461.00;;;24.20
20103;BMP180;10210;52.284;9.892;2023-07-13T05:43:21;100462.00;;;24.20
20103;BMP180;10210;52.284;9.892;2023-07-13T05:45:48;100459.00;;;24.30
20103;BMP180;10210;52.284;9.892;2023-07-13T05:48:14;100467.00;;;24.30
20103;BMP180;10210;52.284;9.892;2023-07-13T05:50:40;100469.00;;;24.30
20103;BMP180;10210;52.284;9.892;2023-07-13T05:53:06;100474.00;;;24.40
20103;BMP180;10210;52.284;9.892;2023-07-13T05:55:32;100484.00;;;24.40
20103;BMP180;10210;52.284;9.892;2023-07-13T05:58:00;100480.00;;;24.40
20103;BMP180;10210;52.284;9.892;2023-07-13T06:00:26;100491.00;;;24.40
20103;BMP180;10210;52.284;9.892;2023-07-13T06:02:52;100482.00;;;24.50
20103;BMP180;10210;52.284;9.892;2023-07-13T06:05:18;100484.00;;;24.50
20103;BMP180;10210;52.284;9.892;2023-07-13T06:07:44;100484.00;;;24.60
20103;BMP180;10210;52.284;9.892;2023-07-13T06:10:10;100482.00;;;24.60
20103;BMP180;10210;52.284;9.892;2023-07-13T06:12:36;100492.00;;;24.60
20103;BMP180;10210;52.284;9.892;2023-07-13T06:15:02;100488.00;;;24.60
20103;BMP180;10210;52.284;9.892;2023-07-13T06:17:28;100493.00;;;24.60
20103;BMP180;10210;52.284;9.892;2023-07-13T06:19:53;100493.00;;;24.60
20103;BMP180;10210;52.284;9.892;2023-07-13T06:22:19;100495.00;;;24.60
20103;BMP180;10210;52.284;9.892;2023-07-13T06:24:45;100492.00;;;24.60
20103;BMP180;10210;52.284;9.892;2023-07-13T06:27:10;100491.00;;;24.60
20103;BMP180;10210;52.284;9.892;2023-07-13T06:29:36;100493.00;;;24.60
20103;BMP180;10210;52.284;9.892;2023-07-13T06:32:02;100493.00;;;24.60
20103;BMP180;10210;52.284;9.892;2023-07-13T06:34:27;100489.00;;;24.60
20103;BMP180;10210;52.284;9.892;2023-07-13T06:36:53;100499.00;;;24.60
20103;BMP180;10210;52.284;9.892;2023-07-13T06:39:18;100499.00;;;24.60
20103;BMP180;10210;52.284;9.892;2023-07-13T06:41:44;100501.00;;;24.60
20103;BMP180;10210;52.284;9.892;2023-07-13T06:44:10;100503.00;;;24.60
20103;BMP180;10210;52.284;9.892;2023-07-13T06:46:35;100496.00;;;24.60
20103;BMP180;10210;52.284;9.892;2023-07-13T06:49:01;100501.00;;;24.60
20103;BMP180;10210;52.284;9.892;2023-07-13T06:51:27;100493.00;;;24.70
20103;BMP180;10210;52.284;9.892;2023-07-13T06:53:53;100499.00;;;24.70
20103;BMP180;10210;52.284;9.892;2023-07-13T06:56:20;100501.00;;;24.70
20103;BMP180;10210;52.284;9.892;2023-07-13T06:58:45;100506.00;;;24.90
20103;BMP180;10210;52.284;9.892;2023-07-13T07:01:11;100504.00;;;25.00
20103;BMP180;10210;52.284;9.892;2023-07-13T07:03:36;100497.00;;;25.20
20103;BMP180;10210;52.284;9.892;2023-07-13T07:06:16;100509.00;;;25.40
20103;BMP180;10210;52.284;9.892;2023-07-13T07:08:43;100507.00;;;25.60
20103;BMP180;10210;52.284;9.892;2023-07-13T07:11:17;100510.00;;;25.70
20103;BMP180;10210;52.284;9.892;2023-07-13T07:13:43;100507.00;;;25.70
20103;BMP180;10210;52.284;9.892;2023-07-13T07:16:09;100505.00;;;25.70
20103;BMP180;10210;52.284;9.892;2023-07-13T07:18:35;100508.00;;;25.80
20103;BMP180;10210;52.284;9.892;2023-07-13T07:21:01;100514.00;;;25.90
20103;BMP180;10210;52.284;9.892;2023-07-13T07:23:27;100506.00;;;26.10
20103;BMP180;10210;52.284;9.892;2023-07-13T07:25:53;100505.00;;;26.20
20103;BMP180;10210;52.284;9.892;2023-07-13T07:28:19;100505.00;;;26.30
20103;BMP180;10210;52.284;9.892;2023-07-13T07:30:46;100499.00;;;26.50
20103;BMP180;10210;52.284;9.892;2023-07-13T07:33:13;100504.00;;;26.70
20103;BMP180;10210;52.284;9.892;2023-07-13T07:35:39;100514.00;;;26.80
20103;BMP180;10210;52.284;9.892;2023-07-13T07:38:05;100496.00;;;26.80
20103;BMP180;10210;52.284;9.892;2023-07-13T07:40:31;100502.00;;;26.90
20103;BMP180;10210;52.284;9.892;2023-07-13T07:42:57;100513.00;;;27.10
20103;BMP180;10210;52.284;9.892;2023-07-13T07:45:23;100509.00;;;27.20
20103;BMP180;10210;52.284;9.892;2023-07-13T07:47:49;100517.00;;;27.20
20103;BMP180;10210;52.284;9.892;2023-07-13T07:50:15;100515.00;;;27.20
20103;BMP180;10210;52.284;9.892;2023-07-13T07:52:41;100513.00;;;27.20
20103;BMP180;10210;52.284;9.892;2023-07-13T07:55:07;100511.00;;;27.10
20103;BMP180;10210;52.284;9.892;2023-07-13T07:57:33;100509.00;;;27.10
20103;BMP180;10210;52.284;9.892;2023-07-13T08:00:00;100529.00;;;27.30
20103;BMP180;10210;52.284;9.892;2023-07-13T08:02:25;100520.00;;;27.50
20103;BMP180;10210;52.284;9.892;2023-07-13T08:04:52;100516.00;;;27.60
20103;BMP180;10210;52.284;9.892;2023-07-13T08:07:18;100521.00;;;27.70
20103;BMP180;10210;52.284;9.892;2023-07-13T08:09:44;100516.00;;;27.80
20103;BMP180;10210;52.284;9.892;2023-07-13T08:12:10;100521.00;;;28.00
20103;BMP180;10210;52.284;9.892;2023-07-13T08:14:35;100527.00;;;28.10
20103;BMP180;10210;52.284;9.892;2023-07-13T08:17:01;100526.00;;;28.20
20103;BMP180;10210;52.284;9.892;2023-07-13T08:19:27;100520.00;;;28.40
20103;BMP180;10210;52.284;9.892;2023-07-13T08:21:52;100526.00;;;28.60
20103;BMP180;10210;52.284;9.892;2023-07-13T08:24:22;100526.00;;;28.70
20103;BMP180;10210;52.284;9.892;2023-07-13T08:26:47;100530.00;;;28.70
20103;BMP180;10210;52.284;9.892;2023-07-13T08:29:13;100523.00;;;28.80
20103;BMP180;10210;52.284;9.892;2023-07-13T08:31:39;100524.00;;;28.70
20103;BMP180;10210;52.284;9.892;2023-07-13T08:34:04;100530.00;;;28.70
20103;BMP180;10210;52.284;9.892;2023-07-13T08:36:30;100536.00;;;28.60
20103;BMP180;10210;52.284;9.892;2023-07-13T08:38:55;100525.00;;;28.60
20103;BMP180;10210;52.284;9.892;2023-07-13T08:41:22;100537.00;;;28.60
20103;BMP180;10210;52.284;9.892;2023-07-13T08:43:56;100529.00;;;28.60
20103;BMP180;10210;52.284;9.892;2023-07-13T08:46:35;100534.00;;;28.60
20103;BMP180;10210;52.284;9.892;2023-07-13T08:49:07;100520.00;;;28.50
20103;BMP180;10210;52.284;9.892;2023-07-13T08:51:58;100536.00;;;28.30
20103;BMP180;10210;52.284;9.892;2023-07-13T08:54:35;100543.00;;;28.40
20103;BMP180;10210;52.284;9.892;2023-07-13T08:57:31;100535.00;;;28.40
20103;BMP180;10210;52.284;9.892;2023-07-13T08:59:58;100534.00;;;28.50
20103;BMP180;10210;52.284;9.892;2023-07-13T09:02:58;100532.00;;;28.40
20103;BMP180;10210;52.284;9.892;2023-07-13T09:05:40;100542.00;;;28.40
20103;BMP180;10210;52.284;9.892;2023-07-13T09:08:10;100539.00;;;28.30
20103;BMP180;10210;52.284;9.892;2023-07-13T09:10:46;100533.00;;;28.10
20103;BMP180;10210;52.284;9.892;2023-07-13T09:16:10;100545.00;;;27.90
20103;BMP180;10210;52.284;9.892;2023-07-13T09:18:42;100542.00;;;27.90
20103;BMP180;10210;52.284;9.892;2023-07-13T09:21:28;100548.00;;;27.90
20103;BMP180;10210;52.284;9.892;2023-07-13T09:24:14;100547.00;;;28.10
20103;BMP180;10210;52.284;9.892;2023-07-13T09:26:47;100544.00;;;28.20
20103;BMP180;10210;52.284;9.892;2023-07-13T09:29:24;100549.00;;;28.20
20103;BMP180;10210;52.284;9.892;2023-07-13T09:31:55;100548.00;;;28.30
20103;BMP180;10210;52.284;9.892;2023-07-13T09:34:23;100546.00;;;28.60
20103;BMP180;10210;52.284;9.892;2023-07-13T09:36:48;100551.00;;;28.70
20103;BMP180;10210;52.284;9.892;2023-07-13T09:39:39;100558.00;;;28.70
20103;BMP180;10210;52.284;9.892;2023-07-13T09:42:18;100556.00;;;28.70
20103;BMP180;10210;52.284;9.892;2023-07-13T09:44:59;100546.00;;;28.60
20103;BMP180;10210;52.284;9.892;2023-07-13T09:47:31;100556.00;;;28.60
20103;BMP180;10210;52.284;9.892;2023-07-13T09:50:10;100543.00;;;28.60
20103;BMP180;10210;52.284;9.892;2023-07-13T09:52:46;100547.00;;;28.70
20103;BMP180;10210;52.284;9.892;2023-07-13T09:55:25;100546.00;;;28.80
20103;BMP180;10210;52.284;9.892;2023-07-13T09:57:52;100552.00;;;29.00
20103;BMP180;10210;52.284;9.892;2023-07-13T10:00:28;100555.00;;;29.10
20103;BMP180;10210;52.284;9.892;2023-07-13T10:03:16;100565.00;;;29.00
20103;BMP180;10210;52.284;9.892;2023-07-13T10:05:46;100564.00;;;29.00
20103;BMP180;10210;52.284;9.892;2023-07-13T10:08:26;100558.00;;;28.90
20103;BMP180;10210;52.284;9.892;2023-07-13T10:11:13;100550.00;;;28.90
20103;BMP180;10210;52.284;9.892;2023-07-13T10:13:46;100556.00;;;29.00
20103;BMP180;10210;52.284;9.892;2023-07-13T10:16:15;100543.00;;;29.10
20103;BMP180;10210;52.284;9.892;2023-07-13T10:18:58;100547.00;;;29.20
20103;BMP180;10210;52.284;9.892;2023-07-13T10:21:33;100547.00;;;29.30
20103;BMP180;10210;52.284;9.892;2023-07-13T10:24:15;100548.00;;;29.40
20103;BMP180;10210;52.284;9.892;2023-07-13T10:26:54;100540.00;;;29.50
20103;BMP180;10210;52.284;9.892;2023-07-13T10:29:25;100550.00;;;29.60
20103;BMP180;10210;52.284;9.892;2023-07-13T10:31:52;100543.00;;;29.60
20103;BMP180;10210;52.284;9.892;2023-07-13T10:34:18;100556.00;;;29.60
20103;BMP180;10210;52.284;9.892;2023-07-13T10:36:47;100555.00;;;29.60
20103;BMP180;10210;52.284;9.892;2023-07-13T10:39:21;100550.00;;;29.60
20103;BMP180;10210;52.284;9.892;2023-07-13T10:42:06;100559.00;;;29.60
20103;BMP180;10210;52.284;9.892;2023-07-13T10:44:35;100548.00;;;29.60
20103;BMP180;10210;52.284;9.892;2023-07-13T10:47:11;100557.00;;;29.60
20103;BMP180;10210;52.284;9.892;2023-07-13T10:49:41;100564.00;;;29.60
20103;BMP180;10210;52.284;9.892;2023-07-13T10:52:48;100556.00;;;29.60
20103;BMP180;10210;52.284;9.892;2023-07-13T10:58:22;100558.00;;;29.80
20103;BMP180;10210;52.284;9.892;2023-07-13T11:01:10;100559.00;;;29.80
20103;BMP180;10210;52.284;9.892;2023-07-13T11:03:50;100559.00;;;29.80
20103;BMP180;10210;52.284;9.892;2023-07-13T11:11:45;100548.00;;;29.80
20103;BMP180;10210;52.284;9.892;2023-07-13T11:14:27;100553.00;;;29.80
20103;BMP180;10210;52.284;9.892;2023-07-13T11:16:54;100559.00;;;29.90
20103;BMP180;10210;52.284;9.892;2023-07-13T11:25:01;100554.00;;;29.90
20103;BMP180;10210;52.284;9.892;2023-07-13T11:27:42;100549.00;;;29.90
20103;BMP180;10210;52.284;9.892;2023-07-13T11:36:05;100558.00;;;29.90
20103;BMP180;10210;52.284;9.892;2023-07-13T11:38:43;100546.00;;;29.90
20103;BMP180;10210;52.284;9.892;2023-07-13T11:41:23;100539.00;;;29.90
20103;BMP180;10210;52.284;9.892;2023-07-13T11:43:54;100555.00;;;30.00
20103;BMP180;10210;52.284;9.892;2023-07-13T11:46:23;100553.00;;;30.00
20103;BMP180;10210;52.284;9.892;2023-07-13T11:48:51;100548.00;;;30.10
20103;BMP180;10210;52.284;9.892;2023-07-13T11:51:25;100552.00;;;30.20
20103;BMP180;10210;52.284;9.892;2023-07-13T11:53:54;100563.00;;;30.20
20103;BMP180;10210;52.284;9.892;2023-07-13T11:56:22;100548.00;;;30.20
20103;BMP180;10210;52.284;9.892;2023-07-13T11:58:54;100553.00;;;30.20
20103;BMP180;10210;52.284;9.892;2023-07-13T12:01:30;100554.00;;;30.20
20103;BMP180;10210;52.284;9.892;2023-07-13T12:04:01;100547.00;;;30.20
20103;BMP180;10210;52.284;9.892;2023-07-13T12:06:34;100540.00;;;30.10
20103;BMP180;10210;52.284;9.892;2023-07-13T12:09:12;100542.00;;;30.10
20103;BMP180;10210;52.284;9.892;2023-07-13T12:11:41;100541.00;;;30.10
20103;BMP180;10210;52.284;9.892;2023-07-13T12:14:18;100548.00;;;30.10
20103;BMP180;10210;52.284;9.892;2023-07-13T12:16:46;100545.00;;;30.10
20103;BMP180;10210;52.284;9.892;2023-07-13T12:19:28;100546.00;;;30.10
20103;BMP180;10210;52.284;9.892;2023-07-13T12:21:57;100550.00;;;30.20
20103;BMP180;10210;52.284;9.892;2023-07-13T12:24:25;100547.00;;;30.30
20103;BMP180;10210;52.284;9.892;2023-07-13T12:27:03;100539.00;;;30.30
20103;BMP180;10210;52.284;9.892;2023-07-13T12:29:31;100549.00;;;30.40
20103;BMP180;10210;52.284;9.892;2023-07-13T12:31:58;100559.00;;;30.40
20103;BMP180;10210;52.284;9.892;2023-07-13T12:34:26;100559.00;;;30.40
20103;BMP180;10210;52.284;9.892;2023-07-13T12:36:58;100555.00;;;30.40
20103;BMP180;10210;52.284;9.892;2023-07-13T12:39:46;100566.00;;;30.30
20103;BMP180;10210;52.284;9.892;2023-07-13T12:42:28;100553.00;;;30.30
20103;BMP180;10210;52.284;9.892;2023-07-13T12:44:59;100553.00;;;30.30
20103;BMP180;10210;52.284;9.892;2023-07-13T12:47:27;100545.00;;;30.30
20103;BMP180;10210;52.284;9.892;2023-07-13T12:49:59;100554.00;;;30.30
20103;BMP180;10210;52.284;9.892;2023-07-13T12:52:34;100559.00;;;30.30
20103;BMP180;10210;52.284;9.892;2023-07-13T12:55:17;100560.00;;;30.30
20103;BMP180;10210;52.284;9.892;2023-07-13T12:57:57;100558.00;;;30.40
20103;BMP180;10210;52.284;9.892;2023-07-13T13:00:36;100558.00;;;30.50
20103;BMP180;10210;52.284;9.892;2023-07-13T13:06:01;100566.00;;;30.60
20103;BMP180;10210;52.284;9.892;2023-07-13T13:08:33;100551.00;;;30.70
20103;BMP180;10210;52.284;9.892;2023-07-13T13:10:58;100541.00;;;30.70
20103;BMP180;10210;52.284;9.892;2023-07-13T13:13:24;100546.00;;;30.70
20103;BMP180;10210;52.284;9.892;2023-07-13T13:15:50;100545.00;;;30.80
20103;BMP180;10210;52.284;9.892;2023-07-13T13:18:21;100544.00;;;30.80
20103;BMP180;10210;52.284;9.892;2023-07-13T13:20:48;100542.00;;;30.90
20103;BMP180;10210;52.284;9.892;2023-07-13T13:23:19;100549.00;;;30.90
20103;BMP180;10210;52.284;9.892;2023-07-13T13:25:50;100553.00;;;30.90
20103;BMP180;10210;52.284;9.892;2023-07-13T13:28:20;100578.00;;;30.80
20103;BMP180;10210;52.284;9.892;2023-07-13T13:30:49;100586.00;;;30.70
20103;BMP180;10210;52.284;9.892;2023-07-13T13:33:19;100590.00;;;30.60
20103;BMP180;10210;52.284;9.892;2023-07-13T13:35:45;100601.00;;;30.40
20103;BMP180;10210;52.284;9.892;2023-07-13T13:38:13;100604.00;;;30.30
20103;BMP180;10210;52.284;9.892;2023-07-13T13:40:42;100604.00;;;30.10
20103;BMP180;10210;52.284;9.892;2023-07-13T13:43:16;100601.00;;;30.00
20103;BMP180;10210;52.284;9.892;2023-07-13T13:45:43;100587.00;;;29.90
20103;BMP180;10210;52.284;9.892;2023-07-13T13:48:27;100582.00;;;29.80
20103;BMP180;10210;52.284;9.892;2023-07-13T13:50:57;100571.00;;;29.90
20103;BMP180;10210;52.284;9.892;2023-07-13T13:53:23;100576.00;;;29.80
20103;BMP180;10210;52.284;9.892;2023-07-13T13:55:52;100588.00;;;29.80
20103;BMP180;10210;52.284;9.892;2023-07-13T13:58:19;100596.00;;;29.80
20103;BMP180;10210;52.284;9.892;2023-07-13T14:00:45;100606.00;;;29.70
20103;BMP180;10210;52.284;9.892;2023-07-13T14:03:21;100615.00;;;29.60
20103;BMP180;10210;52.284;9.892;2023-07-13T14:05:49;100616.00;;;29.60
20103;BMP180;10210;52.284;9.892;2023-07-13T14:08:18;100631.00;;;29.50
20103;BMP180;10210;52.284;9.892;2023-07-13T14:10:48;100635.00;;;29.40
20103;BMP180;10210;52.284;9.892;2023-07-13T14:13:23;100654.00;;;29.30
20103;BMP180;10210;52.284;9.892;2023-07-13T14:15:53;100653.00;;;29.30
20103;BMP180;10210;52.284;9.892;2023-07-13T14:18:18;100662.00;;;29.30
20103;BMP180;10210;52.284;9.892;2023-07-13T14:20:46;100662.00;;;29.20
20103;BMP180;10210;52.284;9.892;2023-07-13T14:23:14;100669.00;;;29.20
20103;BMP180;10210;52.284;9.892;2023-07-13T14:25:41;100684.00;;;29.10
20103;BMP180;10210;52.284;9.892;2023-07-13T14:28:26;100683.00;;;28.90
20103;BMP180;10210;52.284;9.892;2023-07-13T14:30:53;100673.00;;;28.80
20103;BMP180;10210;52.284;9.892;2023-07-13T14:33:20;100677.00;;;28.60
20103;BMP180;10210;52.284;9.892;2023-07-13T14:35:46;100685.00;;;28.50
20103;BMP180;10210;52.284;9.892;2023-07-13T14:38:17;100693.00;;;28.40